Time;durP1;ratioP1;P1;durP2;ratioP2;P2;SDS_P1;SDS_P2;PMS_P1;PMS_P2;Temp;Humidity;BMP_temperature;BMP_pressure;BME280_temperature;BME280_humidity;BME280_pressure;Samples;Min_cycle;Max_cycle;Signal;HPM_P1;HPM_P2
2021/05/20 00:01:32;;;;;;;;;;;;;;;22.33;46.29;99832.66;5079452;28;819;-60
2021/05/20 00:03:58;;;;;;;;;;;;;;;22.33;46.32;99827.09;5078664;28;1326;-63
2021/05/20 00:06:25;;;;;;;;;;;;;;;22.14;46.54;99831.13;5078232;28;787;-62
2021/05/20 00:08:50;;;;;;;;;;;;;;;21.34;48.56;99827.03;5079179;28;764;-60
2021/05/20 00:11:15;;;;;;;;;;;;;;;21.30;48.88;99816.97;5079687;28;1066;-63
2021/05/20 00:13:41;;;;;;;;;;;;;;;21.31;48.82;99813.06;5077924;28;1128;-62
2021/05/20 00:16:06;;;;;;;;;;;;;;;21.72;47.69;99811.66;5078908;28;1918;-62
2021/05/20 00:18:32;;;;;;;;;;;;;;;22.15;46.63;99810.63;5079329;28;776;-60
2021/05/20 00:20:57;;;;;;;;;;;;;;;22.16;46.58;99811.41;5079148;28;803;-62
2021/05/20 00:23:23;;;;;;;;;;;;;;;22.35;45.96;99813.78;5078001;28;1291;-62
2021/05/20 00:25:49;;;;;;;;;;;;;;;22.35;46.25;99800.72;5079483;28;775;-60
2021/05/20 00:28:14;;;;;;;;;;;;;;;22.47;45.60;99794.47;5080412;28;962;-61
2021/05/20 00:30:40;;;;;;;;;;;;;;;22.15;46.65;99788.47;5078905;28;815;-60
2021/05/20 00:33:05;;;;;;;;;;;;;;;22.15;46.47;99793.22;5079069;28;767;-61
2021/05/20 00:35:30;;;;;;;;;;;;;;;21.83;46.88;99793.53;5078972;28;799;-59
2021/05/20 00:37:56;;;;;;;;;;;;;;;21.77;46.88;99794.88;5078714;28;1973;-61
2021/05/20 00:40:21;;;;;;;;;;;;;;;21.68;46.90;99794.09;5077712;28;772;-61
2021/05/20 00:42:47;;;;;;;;;;;;;;;21.76;46.65;99793.25;5080505;28;982;-61
2021/05/20 00:45:13;;;;;;;;;;;;;;;21.73;47.19;99788.38;5076850;28;784;-60
2021/05/20 00:47:38;;;;;;;;;;;;;;;21.75;47.57;99786.06;5078689;28;747;-61
2021/05/20 00:50:05;;;;;;;;;;;;;;;21.80;47.74;99783.13;5078561;28;807;-61
2021/05/20 00:52:30;;;;;;;;;;;;;;;21.86;47.47;99787.31;5078576;28;787;-60
2021/05/20 00:54:56;;;;;;;;;;;;;;;21.97;47.04;99781.44;5078492;28;810;-61
2021/05/20 00:57:22;;;;;;;;;;;;;;;22.04;46.84;99768.66;5087738;28;1967;-61
2021/05/20 00:59:47;;;;;;;;;;;;;;;22.05;46.78;99775.03;5098951;28;791;-62
2021/05/20 01:02:12;;;;;;;;;;;;;;;21.96;47.15;99766.75;5098677;28;842;-60
2021/05/20 01:04:38;;;;;;;;;;;;;;;21.98;46.94;99760.88;5098857;28;731;-62
2021/05/20 01:07:03;;;;;;;;;;;;;;;22.06;46.87;99771.09;5097038;28;771;-62
2021/05/20 01:09:29;;;;;;;;;;;;;;;22.19;46.57;99778.34;5098641;28;728;-60
2021/05/20 01:11:55;;;;;;;;;;;;;;;22.08;46.75;99766.03;5092961;28;926;-62
2021/05/20 01:14:20;;;;;;;;;;;;;;;22.13;46.63;99759.50;5078389;28;811;-59
2021/05/20 01:16:47;;;;;;;;;;;;;;;22.20;46.38;99768.06;5078164;28;1909;-63
2021/05/20 01:19:12;;;;;;;;;;;;;;;22.28;46.28;99769.97;5078144;28;747;-63
2021/05/20 01:21:40;;;;;;;;;;;;;;;22.18;46.66;99749.03;5077854;28;850;-62
2021/05/20 01:24:07;;;;;;;;;;;;;;;22.24;46.31;99749.63;5078077;28;874;-60
2021/05/20 01:26:36;;;;;;;;;;;;;;;22.16;46.68;99747.75;5079223;28;1067;-63
2021/05/20 01:29:03;;;;;;;;;;;;;;;22.07;46.78;99741.47;5059825;28;1246;-62
2021/05/20 01:31:28;;;;;;;;;;;;;;;22.25;46.46;99744.94;5078043;28;819;-63
2021/05/20 01:33:53;;;;;;;;;;;;;;;22.07;46.73;99731.19;5078054;28;831;-62
2021/05/20 01:36:29;;;;;;;;;;;;;;;22.10;46.80;99730.53;5076022;28;1989;-60
2021/05/20 01:38:57;;;;;;;;;;;;;;;22.20;46.42;99734.84;5076004;28;906;-62
2021/05/20 01:41:23;;;;;;;;;;;;;;;22.35;46.11;99725.16;5079015;28;977;-63
2021/05/20 01:43:48;;;;;;;;;;;;;;;22.08;46.89;99730.06;5077202;28;828;-63
2021/05/20 01:46:14;;;;;;;;;;;;;;;22.33;46.04;99727.41;5076546;28;823;-63
2021/05/20 01:48:41;;;;;;;;;;;;;;;22.28;46.25;99739.50;5077601;28;802;-60
2021/05/20 01:51:06;;;;;;;;;;;;;;;22.25;46.52;99739.38;5075432;28;1179;-63
2021/05/20 01:53:32;;;;;;;;;;;;;;;22.39;46.07;99748.25;5077643;28;802;-59
2021/05/20 01:55:58;;;;;;;;;;;;;;;22.35;46.02;99750.09;5077452;28;1917;-63
2021/05/20 01:58:23;;;;;;;;;;;;;;;22.26;46.37;99750.13;5078378;28;1006;-63
2021/05/20 02:00:48;;;;;;;;;;;;;;;22.25;46.37;99750.47;5076924;28;799;-59
2021/05/20 02:03:14;;;;;;;;;;;;;;;22.16;46.76;99745.81;5077339;28;834;-62
2021/05/20 02:05:39;;;;;;;;;;;;;;;22.32;46.16;99725.81;5077103;28;838;-63
2021/05/20 02:08:05;;;;;;;;;;;;;;;22.33;46.26;99713.56;5077088;28;772;-63
2021/05/20 02:10:30;;;;;;;;;;;;;;;22.41;46.04;99711.91;5077186;28;780;-59
2021/05/20 02:12:56;;;;;;;;;;;;;;;22.38;46.00;99708.69;5092266;28;1001;-62
2021/05/20 02:15:22;;;;;;;;;;;;;;;22.29;46.43;99721.75;5097092;28;759;-60
2021/05/20 02:17:47;;;;;;;;;;;;;;;22.16;46.76;99726.41;5097021;28;1905;-60
2021/05/20 02:20:13;;;;;;;;;;;;;;;22.26;46.76;99713.31;5097194;28;858;-60
2021/05/20 02:22:39;;;;;;;;;;;;;;;22.32;46.11;99720.28;5097064;28;826;-60
2021/05/20 02:25:04;;;;;;;;;;;;;;;22.32;46.39;99720.28;5097332;28;782;-60
2021/05/20 02:27:30;;;;;;;;;;;;;;;22.28;46.37;99719.31;5094127;28;1145;-61
2021/05/20 02:29:55;;;;;;;;;;;;;;;22.14;46.75;99717.63;5077838;28;902;-61
2021/05/20 02:32:21;;;;;;;;;;;;;;;22.29;46.52;99712.66;5095149;28;805;-61
2021/05/20 02:34:46;;;;;;;;;;;;;;;22.34;46.12;99709.69;5097139;28;794;-61
2021/05/20 02:37:12;;;;;;;;;;;;;;;22.17;46.43;99700.31;5096664;28;1917;-61
2021/05/20 02:39:37;;;;;;;;;;;;;;;22.35;46.17;99698.25;5096724;28;819;-60
2021/05/20 02:42:03;;;;;;;;;;;;;;;22.31;46.30;99693.72;5094706;28;981;-60
2021/05/20 02:44:29;;;;;;;;;;;;;;;22.30;46.40;99694.84;5095433;28;743;-60
2021/05/20 02:46:54;;;;;;;;;;;;;;;22.37;46.01;99686.84;5096925;28;783;-62
2021/05/20 02:49:20;;;;;;;;;;;;;;;22.29;46.29;99699.59;5096915;28;783;-60
2021/05/20 02:51:45;;;;;;;;;;;;;;;22.28;46.42;99709.06;5094980;28;891;-60
2021/05/20 02:54:11;;;;;;;;;;;;;;;22.18;46.65;99701.16;5096521;28;739;-60
2021/05/20 02:56:36;;;;;;;;;;;;;;;22.35;46.21;99709.34;5093311;28;1973;-64
2021/05/20 02:59:02;;;;;;;;;;;;;;;22.27;46.26;99710.19;5095129;28;1108;-60
2021/05/20 03:01:27;;;;;;;;;;;;;;;22.29;46.37;99701.56;5096528;28;810;-63
2021/05/20 03:03:53;;;;;;;;;;;;;;;22.14;46.82;99698.25;5096933;28;765;-63
2021/05/20 03:06:18;;;;;;;;;;;;;;;22.17;46.76;99703.09;5096715;28;759;-63
2021/05/20 03:08:44;;;;;;;;;;;;;;;22.30;46.44;99697.63;5094933;28;776;-62
2021/05/20 03:11:09;;;;;;;;;;;;;;;22.27;46.62;99695.53;5094467;28;1068;-60
2021/05/20 03:13:35;;;;;;;;;;;;;;;22.28;46.25;99697.16;5093752;28;967;-62
2021/05/20 03:16:00;;;;;;;;;;;;;;;22.33;46.10;99688.63;5095949;28;1910;-59
2021/05/20 03:18:25;;;;;;;;;;;;;;;22.22;46.54;99688.25;5096187;28;771;-58
2021/05/20 03:20:51;;;;;;;;;;;;;;;22.31;46.47;99683.44;5096230;28;815;-59
2021/05/20 03:23:16;;;;;;;;;;;;;;;22.37;46.40;99689.63;5096189;28;823;-59
2021/05/20 03:25:42;;;;;;;;;;;;;;;22.24;46.37;99677.66;5096752;28;819;-60
2021/05/20 03:28:07;;;;;;;;;;;;;;;22.27;46.39;99684.47;5080022;28;1005;-57
2021/05/20 03:30:32;;;;;;;;;;;;;;;22.21;46.51;99684.66;5075921;28;772;-59
2021/05/20 03:32:58;;;;;;;;;;;;;;;22.04;47.04;99687.59;5076223;28;756;-59
2021/05/20 03:35:23;;;;;;;;;;;;;;;22.09;47.08;99689.34;5075884;28;799;-57
2021/05/20 03:37:49;;;;;;;;;;;;;;;22.19;46.57;99692.50;5076036;28;1910;-59
2021/05/20 03:40:14;;;;;;;;;;;;;;;22.16;46.59;99693.19;5091797;28;811;-59
2021/05/20 03:42:40;;;;;;;;;;;;;;;22.18;46.56;99693.66;5076783;28;935;-60
2021/05/20 03:45:05;;;;;;;;;;;;;;;22.16;46.65;99698.72;5074801;28;768;-65
2021/05/20 03:47:31;;;;;;;;;;;;;;;22.16;46.84;99692.38;5075982;28;739;-60
2021/05/20 03:49:56;;;;;;;;;;;;;;;22.06;46.84;99685.28;5075667;28;764;-59
2021/05/20 03:52:22;;;;;;;;;;;;;;;22.17;46.84;99672.66;5075852;28;740;-60
2021/05/20 03:54:47;;;;;;;;;;;;;;;22.21;46.67;99673.59;5074725;28;1095;-59
2021/05/20 03:57:13;;;;;;;;;;;;;;;22.33;46.39;99666.47;5076312;28;1986;-58
2021/05/20 03:59:38;;;;;;;;;;;;;;;22.30;46.38;99667.16;5075871;28;791;-61
2021/05/20 04:02:04;;;;;;;;;;;;;;;22.29;46.57;99668.34;5074068;28;894;-58
2021/05/20 04:04:29;;;;;;;;;;;;;;;22.31;46.17;99666.03;5075509;28;783;-56
2021/05/20 04:06:54;;;;;;;;;;;;;;;22.35;46.19;99683.63;5074757;28;617;-56
2021/05/20 04:09:20;;;;;;;;;;;;;;;22.18;46.60;99685.34;5074268;28;803;-57
2021/05/20 04:11:45;;;;;;;;;;;;;;;22.19;46.66;99678.66;5076555;28;931;-62
2021/05/20 04:14:11;;;;;;;;;;;;;;;22.28;46.51;99672.25;5057659;28;956;-57
2021/05/20 04:16:36;;;;;;;;;;;;;;;22.03;47.35;99677.66;5075837;28;1897;-61
2021/05/20 04:19:03;;;;;;;;;;;;;;;22.16;46.87;99672.97;5075163;28;791;-58
2021/05/20 04:21:29;;;;;;;;;;;;;;;22.21;46.62;99668.06;5074376;28;783;-58
2021/05/20 04:23:54;;;;;;;;;;;;;;;22.26;46.71;99669.00;5076434;28;810;-58
2021/05/20 04:26:20;;;;;;;;;;;;;;;22.27;46.77;99690.00;5080069;28;938;-59
2021/05/20 04:28:46;;;;;;;;;;;;;;;22.18;46.75;99690.09;5079345;28;768;-58
2021/05/20 04:31:11;;;;;;;;;;;;;;;22.18;46.66;99677.03;5077387;28;868;-59
2021/05/20 04:33:36;;;;;;;;;;;;;;;22.36;46.28;99679.69;5094174;28;872;-58
2021/05/20 04:36:02;;;;;;;;;;;;;;;22.30;46.40;99669.94;5078013;28;1975;-60
2021/05/20 04:38:27;;;;;;;;;;;;;;;22.40;46.18;99666.81;5060275;28;1048;-59
2021/05/20 04:40:53;;;;;;;;;;;;;;;22.36;46.18;99666.66;5078806;28;807;-58
2021/05/20 04:43:18;;;;;;;;;;;;;;;22.28;46.76;99672.25;5079804;28;907;-58
2021/05/20 04:45:46;;;;;;;;;;;;;;;22.25;46.76;99667.41;5078726;28;787;-58
2021/05/20 04:48:11;;;;;;;;;;;;;;;22.33;46.42;99656.25;5079123;28;747;-57
2021/05/20 04:50:37;;;;;;;;;;;;;;;22.43;46.35;99666.13;5077196;28;2094;-58
2021/05/20 04:53:02;;;;;;;;;;;;;;;22.42;46.11;99664.47;5078678;28;744;-58
2021/05/20 04:55:27;;;;;;;;;;;;;;;22.21;46.72;99670.03;5078387;28;744;-58
2021/05/20 04:57:53;;;;;;;;;;;;;;;21.67;48.34;99663.25;5079329;28;1913;-60
2021/05/20 05:00:19;;;;;;;;;;;;;;;21.33;49.09;99653.97;5078418;28;926;-58
2021/05/20 05:02:44;;;;;;;;;;;;;;;21.25;49.44;99648.47;5078336;28;851;-59
2021/05/20 05:05:10;;;;;;;;;;;;;;;21.78;47.98;99658.13;5078107;28;866;-58
2021/05/20 05:07:35;;;;;;;;;;;;;;;22.09;46.94;99673.56;5078578;28;774;-59
2021/05/20 05:10:01;;;;;;;;;;;;;;;22.27;46.62;99681.69;5078418;28;771;-58
2021/05/20 05:12:27;;;;;;;;;;;;;;;22.36;46.46;99677.72;5079337;28;1013;-59
2021/05/20 05:14:52;;;;;;;;;;;;;;;22.57;45.80;99665.81;5078169;28;732;-58
2021/05/20 05:17:18;;;;;;;;;;;;;;;22.16;46.85;99662.75;5077826;28;1996;-59
2021/05/20 05:19:43;;;;;;;;;;;;;;;22.10;47.31;99655.78;5078228;28;866;-59
2021/05/20 05:22:09;;;;;;;;;;;;;;;21.84;46.61;99644.94;5077970;28;835;-58
2021/05/20 05:24:34;;;;;;;;;;;;;;;21.83;47.61;99641.31;5077994;28;799;-58
2021/05/20 05:27:00;;;;;;;;;;;;;;;22.27;46.66;99645.69;5079123;28;943;-58
2021/05/20 05:29:26;;;;;;;;;;;;;;;22.61;45.78;99644.59;5076680;28;815;-58
2021/05/20 05:31:51;;;;;;;;;;;;;;;22.33;46.46;99658.19;5076419;28;839;-58
2021/05/20 05:34:17;;;;;;;;;;;;;;;22.04;47.28;99659.91;5077631;28;744;-58
2021/05/20 05:36:42;;;;;;;;;;;;;;;21.56;47.52;99666.72;5077775;28;1905;-55
2021/05/20 05:39:08;;;;;;;;;;;;;;;21.83;48.09;99690.34;5091315;28;887;-58
2021/05/20 05:41:34;;;;;;;;;;;;;;;22.34;46.52;99701.38;5095451;28;934;-57
2021/05/20 05:43:59;;;;;;;;;;;;;;;22.55;45.88;99693.88;5098091;28;807;-57
2021/05/20 05:46:24;;;;;;;;;;;;;;;22.37;46.44;99689.63;5097797;28;811;-61
2021/05/20 05:48:50;;;;;;;;;;;;;;;22.25;46.50;99687.56;5097450;28;752;-62
2021/05/20 05:51:18;;;;;;;;;;;;;;;21.93;46.38;99698.25;5096057;28;1110;-59
2021/05/20 05:53:44;;;;;;;;;;;;;;;21.79;48.28;99695.72;5097820;28;751;-60
2021/05/20 05:56:09;;;;;;;;;;;;;;;22.12;47.10;99683.94;5096280;28;1976;-58
2021/05/20 05:58:35;;;;;;;;;;;;;;;22.36;46.47;99679.69;5094927;28;939;-58
2021/05/20 06:01:00;;;;;;;;;;;;;;;22.50;46.06;99666.38;5097525;28;799;-59
2021/05/20 06:03:26;;;;;;;;;;;;;;;21.97;47.46;99674.28;5097371;28;794;-56
2021/05/20 06:05:52;;;;;;;;;;;;;;;21.63;48.24;99684.44;5095836;28;823;-57
2021/05/20 06:08:17;;;;;;;;;;;;;;;21.60;48.13;99684.28;5097274;28;735;-54
2021/05/20 06:10:43;;;;;;;;;;;;;;;21.96;47.92;99675.41;5097109;28;740;-48
2021/05/20 06:13:08;;;;;;;;;;;;;;;22.49;46.36;99678.59;5095009;28;961;-56
2021/05/20 06:15:34;;;;;;;;;;;;;;;22.32;46.68;99676.75;5097345;28;842;-56
2021/05/20 06:17:59;;;;;;;;;;;;;;;22.14;47.02;99665.03;5096646;28;1909;-53
2021/05/20 06:20:24;;;;;;;;;;;;;;;21.94;47.21;99660.31;5096965;28;870;-56
2021/05/20 06:22:50;;;;;;;;;;;;;;;21.69;48.00;99660.16;5096603;28;831;-59
2021/05/20 06:25:16;;;;;;;;;;;;;;;22.12;47.38;99677.56;5095282;28;1208;-58
2021/05/20 06:27:41;;;;;;;;;;;;;;;22.37;46.73;99675.75;5094648;28;961;-51
2021/05/20 06:30:07;;;;;;;;;;;;;;;22.34;46.79;99679.22;5097003;28;743;-59
2021/05/20 06:32:32;;;;;;;;;;;;;;;22.03;47.54;99672.13;5096798;28;798;-56
2021/05/20 06:34:58;;;;;;;;;;;;;;;21.82;47.87;99681.22;5097081;28;755;-58
2021/05/20 06:37:23;;;;;;;;;;;;;;;21.59;48.16;99686.25;5097112;28;1917;-58
2021/05/20 06:39:49;;;;;;;;;;;;;;;21.94;48.05;99693.53;5096812;28;783;-65
2021/05/20 06:42:15;;;;;;;;;;;;;;;22.40;46.71;99680.66;5094733;28;973;-53
2021/05/20 06:44:41;;;;;;;;;;;;;;;22.51;46.08;99670.75;5096862;28;783;-59
2021/05/20 06:47:07;;;;;;;;;;;;;;;22.05;47.66;99670.63;5096212;28;759;-60
2021/05/20 06:49:32;;;;;;;;;;;;;;;22.12;47.05;99672.88;5096634;28;794;-62
2021/05/20 06:51:58;;;;;;;;;;;;;;;21.77;48.30;99664.81;5096592;28;799;-62
2021/05/20 06:54:23;;;;;;;;;;;;;;;22.01;47.83;99668.88;5096573;28;740;-50
2021/05/20 06:56:54;;;;;;;;;;;;;;;22.36;47.16;99657.56;5094252;28;1971;-61
2021/05/20 07:02:03;;;;;;;;;;;;;;;22.05;47.72;99661.53;5095978;28;751;-61
2021/05/20 07:04:29;;;;;;;;;;;;;;;21.84;48.31;99656.78;5096578;28;760;-60
2021/05/20 07:06:54;;;;;;;;;;;;;;;21.23;48.92;99667.38;5095005;28;1090;-53
2021/05/20 07:09:20;;;;;;;;;;;;;;;21.79;48.54;99670.81;5096252;28;751;-50
2021/05/20 07:11:45;;;;;;;;;;;;;;;22.15;47.61;99677.72;5093093;28;946;-48
2021/05/20 07:14:11;;;;;;;;;;;;;;;22.42;47.02;99683.88;5096824;28;739;-50
2021/05/20 07:16:36;;;;;;;;;;;;;;;22.55;46.52;99680.00;5095713;28;1987;-46
2021/05/20 07:19:02;;;;;;;;;;;;;;;22.05;47.86;99689.22;5096409;28;748;-46
2021/05/20 07:21:27;;;;;;;;;;;;;;;21.83;48.21;99691.13;5096186;28;838;-57
2021/05/20 07:23:52;;;;;;;;;;;;;;;21.51;49.18;99693.41;5095989;28;661;-52
2021/05/20 07:26:18;;;;;;;;;;;;;;;22.02;48.40;99703.69;5094296;28;1008;-46
2021/05/20 07:28:43;;;;;;;;;;;;;;;22.29;47.38;99698.81;5095957;28;851;-46
2021/05/20 07:31:09;;;;;;;;;;;;;;;22.54;46.70;99688.66;5095168;28;1105;-46
2021/05/20 07:33:35;;;;;;;;;;;;;;;22.33;47.25;99708.03;5095968;28;776;-46
2021/05/20 07:36:00;;;;;;;;;;;;;;;21.99;48.16;99701.63;5095950;28;751;-49
2021/05/20 07:38:27;;;;;;;;;;;;;;;21.62;48.45;99704.13;5096047;28;1992;-58
2021/05/20 07:40:53;;;;;;;;;;;;;;;21.69;49.15;99694.16;5095760;28;819;-52
2021/05/20 07:43:18;;;;;;;;;;;;;;;22.01;48.46;99685.50;5094047;28;946;-45
2021/05/20 07:45:44;;;;;;;;;;;;;;;22.40;47.34;99694.50;5096201;28;812;-58
2021/05/20 07:48:09;;;;;;;;;;;;;;;22.61;46.79;99688.91;5095650;28;827;-47
2021/05/20 07:50:34;;;;;;;;;;;;;;;22.16;47.78;99690.44;5095976;28;771;-46
2021/05/20 07:53:00;;;;;;;;;;;;;;;22.03;48.15;99684.03;5096015;28;739;-46
2021/05/20 07:55:25;;;;;;;;;;;;;;;21.77;47.85;99692.50;5095672;28;806;-52
2021/05/20 07:57:53;;;;;;;;;;;;;;;21.70;49.29;99697.75;5093662;28;1913;-47
2021/05/20 08:00:19;;;;;;;;;;;;;;;22.14;48.27;99695.47;5099152;28;786;-49
2021/05/20 08:05:38;;;;;;;;;;;;;;;22.74;46.44;99714.69;5099732;28;830;-48
2021/05/20 08:08:14;;;;;;;;;;;;;;;22.01;47.72;99721.47;5099332;28;1350;-48
2021/05/20 08:10:50;;;;;;;;;;;;;;;21.76;48.71;99732.38;5099315;28;751;-50
2021/05/20 08:13:16;;;;;;;;;;;;;;;21.68;49.01;99736.00;5097902;28;1000;-46
2021/05/20 08:15:41;;;;;;;;;;;;;;;21.92;48.66;99713.22;5099431;28;775;-48
2021/05/20 08:18:07;;;;;;;;;;;;;;;22.30;47.79;99694.84;5098966;28;1909;-59
2021/05/20 08:20:32;;;;;;;;;;;;;;;22.48;47.27;99690.84;5099553;28;826;-58
2021/05/20 08:22:58;;;;;;;;;;;;;;;22.72;46.57;99683.72;5099480;28;854;-60
2021/05/20 08:25:23;;;;;;;;;;;;;;;22.63;46.71;99652.56;5099084;28;763;-47
2021/05/20 08:27:49;;;;;;;;;;;;;;;21.94;48.54;99646.47;5097075;28;1012;-47
2021/05/20 08:30:15;;;;;;;;;;;;;;;21.79;48.93;99662.53;5099318;28;766;-58
2021/05/20 08:32:41;;;;;;;;;;;;;;;21.57;49.37;99684.97;5099074;28;767;-49
2021/05/20 08:35:06;;;;;;;;;;;;;;;22.02;48.77;99678.78;5099448;28;824;-48
2021/05/20 08:37:32;;;;;;;;;;;;;;;22.38;47.75;99663.53;5099064;28;1965;-58
2021/05/20 08:39:57;;;;;;;;;;;;;;;22.67;47.14;99672.88;5099176;28;802;-51
2021/05/20 08:42:23;;;;;;;;;;;;;;;22.10;48.67;99652.19;5089592;28;917;-49
2021/05/20 08:44:48;;;;;;;;;;;;;;;21.84;49.25;99645.72;5078816;28;847;-50
2021/05/20 08:47:14;;;;;;;;;;;;;;;21.68;48.53;99655.75;5078420;28;854;-61
2021/05/20 08:49:39;;;;;;;;;;;;;;;21.78;49.82;99657.31;5079152;28;799;-61
2021/05/20 08:52:05;;;;;;;;;;;;;;;22.18;48.37;99660.44;5078614;28;800;-51
2021/05/20 08:54:31;;;;;;;;;;;;;;;22.46;47.84;99659.88;5078426;28;731;-59
2021/05/20 08:56:56;;;;;;;;;;;;;;;22.59;47.45;99669.03;5080347;28;1975;-58
2021/05/20 08:59:22;;;;;;;;;;;;;;;22.78;46.89;99664.97;5078729;28;795;-55
2021/05/20 09:01:48;;;;;;;;;;;;;;;22.39;47.89;99677.03;5078368;28;807;-52
2021/05/20 09:04:14;;;;;;;;;;;;;;;21.95;49.07;99695.97;5078862;28;756;-59
2021/05/20 09:06:41;;;;;;;;;;;;;;;21.64;49.00;99713.72;5078271;28;779;-53
2021/05/20 09:09:12;;;;;;;;;;;;;;;21.87;49.43;99725.31;5078277;28;739;-58
2021/05/20 09:11:42;;;;;;;;;;;;;;;22.17;48.78;99722.47;5079285;28;978;-51
2021/05/20 09:14:07;;;;;;;;;;;;;;;22.47;47.89;99741.00;5077125;28;1302;-50
2021/05/20 09:16:36;;;;;;;;;;;;;;;22.22;48.63;99747.22;5077755;28;1910;-59
2021/05/20 09:19:01;;;;;;;;;;;;;;;22.15;48.72;99748.91;5078258;28;790;-59
2021/05/20 09:21:27;;;;;;;;;;;;;;;21.93;48.40;99761.09;5078496;28;748;-53
2021/05/20 09:23:52;;;;;;;;;;;;;;;21.92;49.53;99753.94;5077957;28;763;-60
2021/05/20 09:26:18;;;;;;;;;;;;;;;22.24;48.85;99760.72;5079069;28;954;-49
2021/05/20 09:28:47;;;;;;;;;;;;;;;22.55;47.77;99765.91;5078185;28;775;-59
2021/05/20 09:31:16;;;;;;;;;;;;;;;22.03;48.99;99766.22;5078136;28;775;-59
2021/05/20 09:33:54;;;;;;;;;;;;;;;21.91;49.45;99771.66;5077900;28;903;-52
2021/05/20 09:36:20;;;;;;;;;;;;;;;21.37;49.45;99770.25;5077845;28;1906;-47
2021/05/20 09:38:45;;;;;;;;;;;;;;;21.66;50.22;99785.31;5077655;28;838;-60
2021/05/20 09:41:11;;;;;;;;;;;;;;;22.19;48.77;99785.84;5077490;28;989;-50
2021/05/20 09:43:42;;;;;;;;;;;;;;;22.46;48.13;99795.63;5096128;28;1246;-55
2021/05/20 09:46:10;;;;;;;;;;;;;;;22.64;47.42;99798.25;5097733;28;803;-51
2021/05/20 09:48:56;;;;;;;;;;;;;;;22.06;48.93;99793.25;5098098;28;715;-61
2021/05/20 09:51:22;;;;;;;;;;;;;;;21.79;49.29;99789.81;5097331;28;1182;-59
2021/05/20 09:53:52;;;;;;;;;;;;;;;21.58;48.88;99784.19;5097715;28;805;-57
2021/05/20 09:56:41;;;;;;;;;;;;;;;22.01;49.48;99802.56;5097084;28;1917;-55
2021/05/20 09:59:13;;;;;;;;;;;;;;;22.38;48.28;99805.63;5097888;28;754;-56
2021/05/20 10:01:40;;;;;;;;;;;;;;;22.44;48.28;99802.63;5097308;28;842;-57
2021/05/20 10:04:07;;;;;;;;;;;;;;;21.94;49.59;99796.75;5097726;28;783;-56
2021/05/20 10:06:42;;;;;;;;;;;;;;;21.83;49.79;99793.53;5096422;28;740;-60
2021/05/20 10:09:09;;;;;;;;;;;;;;;21.49;49.50;99813.81;5097342;28;842;-58
2021/05/20 10:11:34;;;;;;;;;;;;;;;21.78;49.68;99812.28;5095380;28;937;-60
2021/05/20 10:14:00;;;;;;;;;;;;;;;22.19;48.90;99814.34;5097863;28;810;-58
2021/05/20 10:16:28;;;;;;;;;;;;;;;22.34;48.20;99824.06;5096859;28;1909;-59
2021/05/20 10:18:54;;;;;;;;;;;;;;;22.25;48.61;99820.50;5097384;28;715;-60
2021/05/20 10:21:19;;;;;;;;;;;;;;;22.15;48.65;99834.75;5096956;28;798;-58
2021/05/20 10:23:45;;;;;;;;;;;;;;;22.12;48.62;99827.91;5096795;28;795;-59
2021/05/20 10:26:12;;;;;;;;;;;;;;;22.10;48.70;99846.00;5096261;28;977;-58
2021/05/20 10:28:38;;;;;;;;;;;;;;;21.92;48.67;99839.72;5095273;28;927;-59
2021/05/20 10:31:03;;;;;;;;;;;;;;;21.69;49.23;99851.06;5096598;28;846;-58
2021/05/20 10:33:29;;;;;;;;;;;;;;;21.85;48.63;99846.59;5097196;28;744;-56
2021/05/20 10:35:54;;;;;;;;;;;;;;;21.79;48.34;99858.97;5096787;28;764;-57
2021/05/20 10:38:32;;;;;;;;;;;;;;;21.83;48.27;99856.38;5096646;28;1975;-60
2021/05/20 10:41:06;;;;;;;;;;;;;;;22.00;48.88;99858.25;5096944;28;802;-58
2021/05/20 10:43:32;;;;;;;;;;;;;;;22.32;48.22;99847.66;5095568;28;883;-59
2021/05/20 10:46:05;;;;;;;;;;;;;;;22.33;48.30;99846.50;5096619;28;783;-59
2021/05/20 10:48:31;;;;;;;;;;;;;;;22.58;47.42;99843.94;5096821;28;759;-60
2021/05/20 10:50:57;;;;;;;;;;;;;;;22.47;47.69;99849.88;5096748;28;786;-58
2021/05/20 10:53:41;;;;;;;;;;;;;;;21.93;48.97;99849.66;5096700;28;763;-59
2021/05/20 10:56:06;;;;;;;;;;;;;;;21.67;49.61;99856.09;5096014;28;925;-55
2021/05/20 10:58:35;;;;;;;;;;;;;;;21.38;50.33;99854.84;5095032;28;1914;-50
2021/05/20 11:01:01;;;;;;;;;;;;;;;22.00;49.13;99849.94;5096764;28;783;-54
2021/05/20 11:03:44;;;;;;;;;;;;;;;22.35;48.17;99858.91;5096687;28;807;-50
2021/05/20 11:06:10;;;;;;;;;;;;;;;22.46;47.64;99862.09;5096397;28;787;-58
2021/05/20 11:08:35;;;;;;;;;;;;;;;22.52;47.57;99863.50;5096453;28;838;-53
2021/05/20 11:11:01;;;;;;;;;;;;;;;22.27;47.97;99864.47;5096217;28;712;-59
2021/05/20 11:13:36;;;;;;;;;;;;;;;21.91;49.03;99854.69;5093989;28;957;-57
2021/05/20 11:16:14;;;;;;;;;;;;;;;21.53;49.13;99851.59;5096761;28;774;-57
2021/05/20 11:18:40;;;;;;;;;;;;;;;21.73;49.79;99849.25;5096367;28;802;-59
2021/05/20 11:21:05;;;;;;;;;;;;;;;22.21;48.43;99852.78;5095068;28;870;-59
2021/05/20 11:23:31;;;;;;;;;;;;;;;22.41;47.79;99856.75;5096106;28;795;-59
2021/05/20 11:26:00;;;;;;;;;;;;;;;22.63;47.02;99858.41;5096382;28;755;-57
2021/05/20 11:28:26;;;;;;;;;;;;;;;22.26;47.88;99851.75;5094095;28;938;-60
2021/05/20 11:31:00;;;;;;;;;;;;;;;22.03;48.43;99858.41;5095970;28;985;-53
2021/05/20 11:33:26;;;;;;;;;;;;;;;21.80;47.98;99852.31;5098417;28;783;-57
2021/05/20 11:38:26;;;;;;;;;;;;;;;22.21;48.42;99852.78;5100381;28;1977;-52
2021/05/20 11:40:52;;;;;;;;;;;;;;;22.50;46.75;99863.06;5100410;28;827;-60
2021/05/20 11:43:27;;;;;;;;;;;;;;;22.63;47.13;99858.41;5097902;28;957;-59
2021/05/20 11:45:52;;;;;;;;;;;;;;;22.44;47.36;99861.63;5100386;28;743;-59
2021/05/20 11:48:18;;;;;;;;;;;;;;;22.24;47.92;99867.91;5100321;28;867;-60
2021/05/20 11:50:50;;;;;;;;;;;;;;;21.80;48.30;99881.94;5099762;28;767;-60
2021/05/20 11:53:15;;;;;;;;;;;;;;;21.73;49.51;99881.63;5100265;28;842;-58
2021/05/20 11:55:42;;;;;;;;;;;;;;;22.03;48.56;99886.09;5100176;28;715;-60
2021/05/20 11:58:07;;;;;;;;;;;;;;;22.17;48.00;99896.91;5083808;28;1987;-58
2021/05/20 12:00:33;;;;;;;;;;;;;;;22.13;48.01;99897.94;5079788;28;791;-59
2021/05/20 12:02:58;;;;;;;;;;;;;;;22.15;48.17;99896.44;5079740;28;768;-59
2021/05/20 12:05:24;;;;;;;;;;;;;;;22.25;47.63;99900.00;5079201;28;810;-59
2021/05/20 12:07:50;;;;;;;;;;;;;;;22.30;47.68;99900.63;5079596;28;811;-59
2021/05/20 12:10:16;;;;;;;;;;;;;;;22.25;47.65;99900.81;5078444;28;807;-55
2021/05/20 12:12:42;;;;;;;;;;;;;;;22.31;47.50;99895.88;5080140;28;962;-60
2021/05/20 12:15:11;;;;;;;;;;;;;;;22.18;47.78;99893.00;5079525;28;748;-59
2021/05/20 12:17:36;;;;;;;;;;;;;;;22.33;47.47;99888.91;5079149;28;1980;-60
2021/05/20 12:20:01;;;;;;;;;;;;;;;22.27;47.69;99894.94;5078931;28;764;-57
2021/05/20 12:22:28;;;;;;;;;;;;;;;22.11;48.07;99892.72;5079443;28;744;-53
2021/05/20 12:24:54;;;;;;;;;;;;;;;22.15;47.87;99893.69;5079269;28;808;-56
2021/05/20 12:27:21;;;;;;;;;;;;;;;22.06;48.11;99892.91;5080174;28;974;-59
2021/05/20 12:29:47;;;;;;;;;;;;;;;22.26;47.38;99894.13;5079354;28;759;-61
2021/05/20 12:32:25;;;;;;;;;;;;;;;22.23;47.57;99892.00;5079151;28;835;-54
2021/05/20 12:35:27;;;;;;;;;;;;;;;22.12;47.73;99901.84;5078764;28;739;-60
2021/05/20 12:37:52;;;;;;;;;;;;;;;22.28;47.49;99891.03;5017223;28;1922;-60
2021/05/20 12:40:24;;;;;;;;;;;;;;;22.18;47.57;99876.41;5066554;28;908;-58
2021/05/20 12:43:01;;;;;;;;;;;;;;;22.12;48.01;99890.75;5080627;28;997;-56
2021/05/20 12:45:27;;;;;;;;;;;;;;;22.14;47.75;99886.50;5078225;28;795;-58
2021/05/20 12:47:54;;;;;;;;;;;;;;;22.24;47.67;99898.38;5078916;28;783;-56
2021/05/20 12:50:26;;;;;;;;;;;;;;;22.10;47.90;99902.16;5078889;28;787;-59
2021/05/20 12:52:52;;;;;;;;;;;;;;;22.26;47.58;99893.28;5078786;28;764;-54
2021/05/20 12:55:17;;;;;;;;;;;;;;;22.04;48.38;99895.19;5078570;28;807;-58
2021/05/20 12:57:56;;;;;;;;;;;;;;;22.09;48.03;99902.50;5079745;28;1980;-59
2021/05/20 13:00:22;;;;;;;;;;;;;;;22.00;48.27;99908.09;5078830;28;771;-62
2021/05/20 13:02:56;;;;;;;;;;;;;;;22.11;48.22;99892.72;5078863;28;783;-54
2021/05/20 13:05:23;;;;;;;;;;;;;;;22.03;48.15;99910.19;5078292;28;895;-61
2021/05/20 13:07:49;;;;;;;;;;;;;;;22.12;48.24;99926.75;5078283;28;739;-60
2021/05/20 13:10:29;;;;;;;;;;;;;;;22.12;48.08;99929.50;5078494;28;807;-47